sensor_id;sensor_type;location;lat;lon;timestamp;P1;durP1;ratioP1;P2;durP2;ratioP2
78840;SDS011;68379;47.190;27.558;2023-03-05T00:00:24;26.10;;;11.60;;
78840;SDS011;68379;47.190;27.558;2023-03-05T00:02:55;28.20;;;12.60;;
78840;SDS011;68379;47.190;27.558;2023-03-05T00:05:25;26.60;;;12.10;;
78840;SDS011;68379;47.190;27.558;2023-03-05T00:07:55;33.00;;;13.20;;
78840;SDS011;68379;47.190;27.558;2023-03-05T00:10:25;34.30;;;13.40;;
78840;SDS011;68379;47.190;27.558;2023-03-05T00:12:55;41.90;;;15.10;;
78840;SDS011;68379;47.190;27.558;2023-03-05T00:15:26;37.80;;;14.80;;
78840;SDS011;68379;47.190;27.558;2023-03-05T00:17:56;35.90;;;13.90;;
78840;SDS011;68379;47.190;27.558;2023-03-05T00:20:26;32.70;;;12.60;;
78840;SDS011;68379;47.190;27.558;2023-03-05T00:22:56;26.50;;;12.90;;
78840;SDS011;68379;47.190;27.558;2023-03-05T00:25:28;32.60;;;14.40;;
78840;SDS011;68379;47.190;27.558;2023-03-05T00:27:58;30.30;;;12.60;;
78840;SDS011;68379;47.190;27.558;2023-03-05T00:30:28;29.80;;;13.30;;
78840;SDS011;68379;47.190;27.558;2023-03-05T00:32:59;31.90;;;13.70;;
78840;SDS011;68379;47.190;27.558;2023-03-05T00:35:30;31.00;;;13.30;;
78840;SDS011;68379;47.190;27.558;2023-03-05T00:38:06;29.10;;;13.70;;
78840;SDS011;68379;47.190;27.558;2023-03-05T00:40:37;29.70;;;13.10;;
78840;SDS011;68379;47.190;27.558;2023-03-05T00:43:08;31.30;;;13.10;;
78840;SDS011;68379;47.190;27.558;2023-03-05T00:45:38;32.30;;;13.50;;
78840;SDS011;68379;47.190;27.558;2023-03-05T00:48:09;25.00;;;11.50;;
78840;SDS011;68379;47.190;27.558;2023-03-05T00:50:39;33.50;;;14.20;;
78840;SDS011;68379;47.190;27.558;2023-03-05T00:53:09;33.80;;;14.20;;
78840;SDS011;68379;47.190;27.558;2023-03-05T00:55:40;43.20;;;15.20;;
78840;SDS011;68379;47.190;27.558;2023-03-05T00:58:10;40.50;;;15.30;;
78840;SDS011;68379;47.190;27.558;2023-03-05T01:00:40;33.60;;;15.10;;
78840;SDS011;68379;47.190;27.558;2023-03-05T01:03:10;28.60;;;12.90;;
78840;SDS011;68379;47.190;27.558;2023-03-05T01:05:41;30.30;;;12.50;;
78840;SDS011;68379;47.190;27.558;2023-03-05T01:08:11;27.60;;;12.40;;
78840;SDS011;68379;47.190;27.558;2023-03-05T01:10:42;25.30;;;12.50;;
78840;SDS011;68379;47.190;27.558;2023-03-05T01:13:12;31.70;;;12.80;;
78840;SDS011;68379;47.190;27.558;2023-03-05T01:15:43;29.10;;;12.30;;
78840;SDS011;68379;47.190;27.558;2023-03-05T01:18:14;29.20;;;13.30;;
78840;SDS011;68379;47.190;27.558;2023-03-05T01:20:45;30.80;;;13.50;;
78840;SDS011;68379;47.190;27.558;2023-03-05T01:23:15;31.20;;;13.30;;
78840;SDS011;68379;47.190;27.558;2023-03-05T01:25:51;33.00;;;13.20;;
78840;SDS011;68379;47.190;27.558;2023-03-05T01:28:23;29.70;;;12.40;;
78840;SDS011;68379;47.190;27.558;2023-03-05T01:30:53;29.10;;;13.30;;
78840;SDS011;68379;47.190;27.558;2023-03-05T01:33:23;31.40;;;12.90;;
78840;SDS011;68379;47.190;27.558;2023-03-05T01:35:54;38.80;;;14.20;;
78840;SDS011;68379;47.190;27.558;2023-03-05T01:38:24;49.90;;;17.00;;
78840;SDS011;68379;47.190;27.558;2023-03-05T01:40:54;42.60;;;15.50;;
78840;SDS011;68379;47.190;27.558;2023-03-05T01:43:26;36.60;;;13.70;;
78840;SDS011;68379;47.190;27.558;2023-03-05T01:48:53;25.40;;;11.50;;
78840;SDS011;68379;47.190;27.558;2023-03-05T01:51:27;27.20;;;12.80;;
78840;SDS011;68379;47.190;27.558;2023-03-05T01:54:00;28.50;;;11.40;;
78840;SDS011;68379;47.190;27.558;2023-03-05T01:56:33;30.50;;;12.80;;
78840;SDS011;68379;47.190;27.558;2023-03-05T01:59:04;30.30;;;11.90;;
78840;SDS011;68379;47.190;27.558;2023-03-05T02:01:37;31.50;;;12.30;;
78840;SDS011;68379;47.190;27.558;2023-03-05T02:04:12;25.50;;;12.30;;
78840;SDS011;68379;47.190;27.558;2023-03-05T02:06:45;28.00;;;12.30;;
78840;SDS011;68379;47.190;27.558;2023-03-05T02:09:16;27.00;;;11.90;;
78840;SDS011;68379;47.190;27.558;2023-03-05T02:11:49;28.60;;;11.40;;
78840;SDS011;68379;47.190;27.558;2023-03-05T02:14:20;26.30;;;11.80;;
78840;SDS011;68379;47.190;27.558;2023-03-05T02:16:51;27.80;;;12.30;;
78840;SDS011;68379;47.190;27.558;2023-03-05T02:19:22;32.70;;;13.50;;
78840;SDS011;68379;47.190;27.558;2023-03-05T02:21:52;64.70;;;18.50;;
78840;SDS011;68379;47.190;27.558;2023-03-05T02:24:33;47.90;;;15.80;;
78840;SDS011;68379;47.190;27.558;2023-03-05T02:27:04;40.50;;;14.80;;
78840;SDS011;68379;47.190;27.558;2023-03-05T02:29:35;28.90;;;12.20;;
78840;SDS011;68379;47.190;27.558;2023-03-05T02:32:09;27.30;;;11.70;;
78840;SDS011;68379;47.190;27.558;2023-03-05T02:34:39;33.00;;;12.90;;
78840;SDS011;68379;47.190;27.558;2023-03-05T02:37:09;30.20;;;12.70;;
78840;SDS011;68379;47.190;27.558;2023-03-05T02:39:39;29.00;;;12.60;;
78840;SDS011;68379;47.190;27.558;2023-03-05T02:42:10;29.60;;;12.60;;
78840;SDS011;68379;47.190;27.558;2023-03-05T02:44:40;30.30;;;12.80;;
78840;SDS011;68379;47.190;27.558;2023-03-05T02:47:10;28.80;;;12.10;;
78840;SDS011;68379;47.190;27.558;2023-03-05T02:49:41;33.60;;;13.30;;
78840;SDS011;68379;47.190;27.558;2023-03-05T02:52:11;29.40;;;12.30;;
78840;SDS011;68379;47.190;27.558;2023-03-05T02:54:41;30.30;;;12.30;;
78840;SDS011;68379;47.190;27.558;2023-03-05T02:57:12;50.30;;;14.90;;
78840;SDS011;68379;47.190;27.558;2023-03-05T02:59:42;83.30;;;22.00;;
78840;SDS011;68379;47.190;27.558;2023-03-05T03:02:12;60.20;;;18.20;;
78840;SDS011;68379;47.190;27.558;2023-03-05T03:04:43;41.70;;;15.40;;
78840;SDS011;68379;47.190;27.558;2023-03-05T03:07:13;36.80;;;15.60;;
78840;SDS011;68379;47.190;27.558;2023-03-05T03:09:44;28.50;;;12.30;;
78840;SDS011;68379;47.190;27.558;2023-03-05T03:12:14;28.20;;;12.30;;
78840;SDS011;68379;47.190;27.558;2023-03-05T03:14:45;31.30;;;12.70;;
78840;SDS011;68379;47.190;27.558;2023-03-05T03:17:15;29.20;;;12.20;;
78840;SDS011;68379;47.190;27.558;2023-03-05T03:19:46;31.90;;;12.30;;
78840;SDS011;68379;47.190;27.558;2023-03-05T03:22:16;36.40;;;13.30;;
78840;SDS011;68379;47.190;27.558;2023-03-05T03:24:47;27.20;;;11.70;;
78840;SDS011;68379;47.190;27.558;2023-03-05T03:27:18;31.50;;;12.70;;
78840;SDS011;68379;47.190;27.558;2023-03-05T03:29:49;33.10;;;14.20;;
78840;SDS011;68379;47.190;27.558;2023-03-05T03:32:19;26.90;;;10.30;;
78840;SDS011;68379;47.190;27.558;2023-03-05T03:34:49;29.20;;;12.40;;
78840;SDS011;68379;47.190;27.558;2023-03-05T03:37:20;32.50;;;12.20;;
78840;SDS011;68379;47.190;27.558;2023-03-05T03:39:50;36.40;;;13.90;;
78840;SDS011;68379;47.190;27.558;2023-03-05T03:42:20;45.60;;;15.90;;
78840;SDS011;68379;47.190;27.558;2023-03-05T03:44:51;40.30;;;15.40;;
78840;SDS011;68379;47.190;27.558;2023-03-05T03:47:21;36.40;;;13.60;;
78840;SDS011;68379;47.190;27.558;2023-03-05T03:49:54;31.30;;;11.70;;
78840;SDS011;68379;47.190;27.558;2023-03-05T03:52:24;25.90;;;11.70;;
78840;SDS011;68379;47.190;27.558;2023-03-05T03:54:55;28.60;;;12.00;;
78840;SDS011;68379;47.190;27.558;2023-03-05T03:57:27;25.10;;;10.60;;
78840;SDS011;68379;47.190;27.558;2023-03-05T03:59:59;24.80;;;10.80;;
78840;SDS011;68379;47.190;27.558;2023-03-05T04:02:33;28.90;;;11.50;;
78840;SDS011;68379;47.190;27.558;2023-03-05T04:05:03;29.40;;;12.00;;
78840;SDS011;68379;47.190;27.558;2023-03-05T04:07:35;32.70;;;12.30;;
78840;SDS011;68379;47.190;27.558;2023-03-05T04:10:06;23.80;;;10.40;;
78840;SDS011;68379;47.190;27.558;2023-03-05T04:12:37;23.30;;;10.70;;
78840;SDS011;68379;47.190;27.558;2023-03-05T04:15:12;29.70;;;12.60;;
78840;SDS011;68379;47.190;27.558;2023-03-05T04:17:42;28.20;;;11.30;;
78840;SDS011;68379;47.190;27.558;2023-03-05T04:20:13;22.80;;;9.90;;
78840;SDS011;68379;47.190;27.558;2023-03-05T04:22:43;24.00;;;10.30;;
78840;SDS011;68379;47.190;27.558;2023-03-05T04:25:14;38.20;;;12.20;;
78840;SDS011;68379;47.190;27.558;2023-03-05T04:27:44;35.80;;;13.50;;
78840;SDS011;68379;47.190;27.558;2023-03-05T04:30:15;39.90;;;14.30;;
78840;SDS011;68379;47.190;27.558;2023-03-05T04:32:46;32.90;;;13.50;;
78840;SDS011;68379;47.190;27.558;2023-03-05T04:35:16;22.60;;;10.90;;
78840;SDS011;68379;47.190;27.558;2023-03-05T04:37:47;21.20;;;9.40;;
78840;SDS011;68379;47.190;27.558;2023-03-05T04:40:18;22.00;;;8.80;;
78840;SDS011;68379;47.190;27.558;2023-03-05T04:42:49;24.60;;;10.30;;
78840;SDS011;68379;47.190;27.558;2023-03-05T04:45:19;22.20;;;9.60;;
78840;SDS011;68379;47.190;27.558;2023-03-05T04:47:49;18.40;;;9.00;;
78840;SDS011;68379;47.190;27.558;2023-03-05T04:50:20;25.30;;;10.40;;
78840;SDS011;68379;47.190;27.558;2023-03-05T04:52:51;22.70;;;10.60;;
78840;SDS011;68379;47.190;27.558;2023-03-05T04:55:21;23.70;;;10.50;;
78840;SDS011;68379;47.190;27.558;2023-03-05T04:57:51;22.40;;;10.40;;
78840;SDS011;68379;47.190;27.558;2023-03-05T05:00:23;20.20;;;9.20;;
78840;SDS011;68379;47.190;27.558;2023-03-05T05:02:54;14.40;;;7.20;;
78840;SDS011;68379;47.190;27.558;2023-03-05T05:05:24;14.50;;;6.80;;
78840;SDS011;68379;47.190;27.558;2023-03-05T05:07:56;13.50;;;6.60;;
78840;SDS011;68379;47.190;27.558;2023-03-05T05:10:27;12.20;;;5.60;;
78840;SDS011;68379;47.190;27.558;2023-03-05T05:12:57;13.00;;;5.30;;
78840;SDS011;68379;47.190;27.558;2023-03-05T05:15:27;10.60;;;5.00;;
78840;SDS011;68379;47.190;27.558;2023-03-05T05:17:59;11.40;;;4.80;;
78840;SDS011;68379;47.190;27.558;2023-03-05T05:20:29;11.30;;;4.70;;
78840;SDS011;68379;47.190;27.558;2023-03-05T05:23:00;7.20;;;3.40;;
78840;SDS011;68379;47.190;27.558;2023-03-05T05:25:30;7.20;;;3.00;;
78840;SDS011;68379;47.190;27.558;2023-03-05T05:28:00;5.80;;;2.70;;
78840;SDS011;68379;47.190;27.558;2023-03-05T05:30:32;7.20;;;2.90;;
78840;SDS011;68379;47.190;27.558;2023-03-05T05:33:03;5.40;;;2.50;;
78840;SDS011;68379;47.190;27.558;2023-03-05T05:35:33;4.40;;;2.20;;
78840;SDS011;68379;47.190;27.558;2023-03-05T05:38:07;6.00;;;2.30;;
78840;SDS011;68379;47.190;27.558;2023-03-05T05:40:37;3.80;;;2.00;;
78840;SDS011;68379;47.190;27.558;2023-03-05T05:43:08;4.20;;;1.40;;
78840;SDS011;68379;47.190;27.558;2023-03-05T05:45:38;4.00;;;1.40;;
78840;SDS011;68379;47.190;27.558;2023-03-05T05:48:08;4.70;;;1.50;;
78840;SDS011;68379;47.190;27.558;2023-03-05T05:50:39;3.30;;;1.40;;
78840;SDS011;68379;47.190;27.558;2023-03-05T05:53:09;2.90;;;1.30;;
78840;SDS011;68379;47.190;27.558;2023-03-05T05:55:40;4.30;;;1.20;;
78840;SDS011;68379;47.190;27.558;2023-03-05T05:58:10;3.10;;;1.20;;
78840;SDS011;68379;47.190;27.558;2023-03-05T06:00:40;3.90;;;1.20;;
78840;SDS011;68379;47.190;27.558;2023-03-05T06:03:11;3.20;;;1.30;;
78840;SDS011;68379;47.190;27.558;2023-03-05T06:05:41;4.00;;;1.30;;
78840;SDS011;68379;47.190;27.558;2023-03-05T06:08:13;2.80;;;1.20;;
78840;SDS011;68379;47.190;27.558;2023-03-05T06:10:43;3.40;;;1.20;;
78840;SDS011;68379;47.190;27.558;2023-03-05T06:13:20;4.10;;;1.60;;
78840;SDS011;68379;47.190;27.558;2023-03-05T06:16:01;3.20;;;1.40;;
78840;SDS011;68379;47.190;27.558;2023-03-05T06:18:34;2.50;;;1.20;;
78840;SDS011;68379;47.190;27.558;2023-03-05T06:21:05;2.70;;;1.30;;
78840;SDS011;68379;47.190;27.558;2023-03-05T06:23:38;4.40;;;1.30;;
78840;SDS011;68379;47.190;27.558;2023-03-05T06:26:10;2.30;;;0.70;;
78840;SDS011;68379;47.190;27.558;2023-03-05T06:28:42;3.00;;;1.20;;
78840;SDS011;68379;47.190;27.558;2023-03-05T06:31:14;2.80;;;0.90;;
78840;SDS011;68379;47.190;27.558;2023-03-05T06:33:47;3.40;;;1.30;;
78840;SDS011;68379;47.190;27.558;2023-03-05T06:36:18;4.90;;;1.70;;
78840;SDS011;68379;47.190;27.558;2023-03-05T06:38:51;1.40;;;0.60;;
78840;SDS011;68379;47.190;27.558;2023-03-05T06:41:22;2.70;;;1.20;;
78840;SDS011;68379;47.190;27.558;2023-03-05T06:43:54;2.40;;;1.00;;
78840;SDS011;68379;47.190;27.558;2023-03-05T06:46:26;2.20;;;1.00;;
78840;SDS011;68379;47.190;27.558;2023-03-05T06:48:58;3.50;;;2.20;;
78840;SDS011;68379;47.190;27.558;2023-03-05T06:51:30;6.20;;;1.10;;
78840;SDS011;68379;47.190;27.558;2023-03-05T06:54:04;2.40;;;1.00;;
78840;SDS011;68379;47.190;27.558;2023-03-05T06:56:37;3.90;;;1.20;;
78840;SDS011;68379;47.190;27.558;2023-03-05T06:59:09;2.10;;;1.20;;
78840;SDS011;68379;47.190;27.558;2023-03-05T07:01:40;3.20;;;1.00;;
78840;SDS011;68379;47.190;27.558;2023-03-05T07:04:11;3.10;;;1.10;;
78840;SDS011;68379;47.190;27.558;2023-03-05T07:06:42;3.20;;;0.90;;
78840;SDS011;68379;47.190;27.558;2023-03-05T07:09:13;2.50;;;0.90;;
78840;SDS011;68379;47.190;27.558;2023-03-05T07:11:43;2.00;;;1.00;;
78840;SDS011;68379;47.190;27.558;2023-03-05T07:14:14;2.50;;;1.10;;
78840;SDS011;68379;47.190;27.558;2023-03-05T07:16:44;5.30;;;2.00;;
78840;SDS011;68379;47.190;27.558;2023-03-05T07:19:14;3.50;;;1.30;;
78840;SDS011;68379;47.190;27.558;2023-03-05T07:21:45;4.40;;;1.70;;
78840;SDS011;68379;47.190;27.558;2023-03-05T07:24:15;3.70;;;1.70;;
78840;SDS011;68379;47.190;27.558;2023-03-05T07:26:46;2.80;;;1.40;;
78840;SDS011;68379;47.190;27.558;2023-03-05T07:29:16;3.60;;;1.60;;
78840;SDS011;68379;47.190;27.558;2023-03-05T07:31:46;5.40;;;1.50;;
78840;SDS011;68379;47.190;27.558;2023-03-05T07:34:16;2.00;;;1.20;;
78840;SDS011;68379;47.190;27.558;2023-03-05T07:36:50;2.40;;;1.10;;
78840;SDS011;68379;47.190;27.558;2023-03-05T07:39:20;2.20;;;1.00;;
78840;SDS011;68379;47.190;27.558;2023-03-05T07:41:51;2.10;;;0.90;;
78840;SDS011;68379;47.190;27.558;2023-03-05T07:44:21;3.10;;;0.80;;
78840;SDS011;68379;47.190;27.558;2023-03-05T07:46:51;2.00;;;0.80;;
78840;SDS011;68379;47.190;27.558;2023-03-05T07:49:22;2.70;;;1.20;;
78840;SDS011;68379;47.190;27.558;2023-03-05T07:51:52;2.10;;;0.90;;
78840;SDS011;68379;47.190;27.558;2023-03-05T07:54:22;1.80;;;0.60;;
78840;SDS011;68379;47.190;27.558;2023-03-05T07:56:53;1.90;;;0.80;;
78840;SDS011;68379;47.190;27.558;2023-03-05T07:59:23;2.50;;;0.90;;
78840;SDS011;68379;47.190;27.558;2023-03-05T08:01:54;2.00;;;1.10;;
78840;SDS011;68379;47.190;27.558;2023-03-05T08:04:24;3.50;;;1.10;;
78840;SDS011;68379;47.190;27.558;2023-03-05T08:06:57;2.10;;;1.20;;
78840;SDS011;68379;47.190;27.558;2023-03-05T08:09:28;2.70;;;1.00;;
78840;SDS011;68379;47.190;27.558;2023-03-05T08:11:58;2.70;;;1.20;;
78840;SDS011;68379;47.190;27.558;2023-03-05T08:14:29;3.80;;;1.00;;
78840;SDS011;68379;47.190;27.558;2023-03-05T08:16:59;2.10;;;0.90;;
78840;SDS011;68379;47.190;27.558;2023-03-05T08:19:30;1.70;;;0.70;;
78840;SDS011;68379;47.190;27.558;2023-03-05T08:22:00;2.70;;;0.70;;
78840;SDS011;68379;47.190;27.558;2023-03-05T08:24:31;2.60;;;0.70;;
78840;SDS011;68379;47.190;27.558;2023-03-05T08:27:01;1.70;;;0.90;;
78840;SDS011;68379;47.190;27.558;2023-03-05T08:29:32;2.50;;;1.10;;
78840;SDS011;68379;47.190;27.558;2023-03-05T08:32:02;3.80;;;1.20;;
78840;SDS011;68379;47.190;27.558;2023-03-05T08:34:33;2.60;;;1.00;;
78840;SDS011;68379;47.190;27.558;2023-03-05T08:37:04;3.50;;;1.90;;
78840;SDS011;68379;47.190;27.558;2023-03-05T08:39:35;4.70;;;1.50;;
78840;SDS011;68379;47.190;27.558;2023-03-05T08:42:06;3.90;;;1.70;;
78840;SDS011;68379;47.190;27.558;2023-03-05T08:44:36;2.40;;;1.00;;
78840;SDS011;68379;47.190;27.558;2023-03-05T08:47:07;1.90;;;0.90;;
78840;SDS011;68379;47.190;27.558;2023-03-05T08:49:37;1.50;;;0.50;;
78840;SDS011;68379;47.190;27.558;2023-03-05T08:52:07;1.70;;;0.60;;
78840;SDS011;68379;47.190;27.558;2023-03-05T08:54:38;3.20;;;1.20;;
78840;SDS011;68379;47.190;27.558;2023-03-05T08:57:08;1.50;;;0.70;;
78840;SDS011;68379;47.190;27.558;2023-03-05T08:59:38;2.60;;;0.60;;
78840;SDS011;68379;47.190;27.558;2023-03-05T09:02:10;2.10;;;0.70;;
78840;SDS011;68379;47.190;27.558;2023-03-05T09:04:41;2.10;;;0.70;;
78840;SDS011;68379;47.190;27.558;2023-03-05T09:07:11;2.10;;;0.90;;
78840;SDS011;68379;47.190;27.558;2023-03-05T09:09:42;2.40;;;0.80;;
78840;SDS011;68379;47.190;27.558;2023-03-05T09:12:12;2.60;;;1.20;;
78840;SDS011;68379;47.190;27.558;2023-03-05T09:14:42;2.10;;;1.00;;
78840;SDS011;68379;47.190;27.558;2023-03-05T09:17:13;3.20;;;1.00;;
78840;SDS011;68379;47.190;27.558;2023-03-05T09:19:43;2.30;;;0.90;;
78840;SDS011;68379;47.190;27.558;2023-03-05T09:22:13;2.50;;;1.20;;
78840;SDS011;68379;47.190;27.558;2023-03-05T09:24:44;2.80;;;1.00;;
78840;SDS011;68379;47.190;27.558;2023-03-05T09:27:14;4.00;;;1.00;;
78840;SDS011;68379;47.190;27.558;2023-03-05T09:29:45;3.00;;;1.00;;
78840;SDS011;68379;47.190;27.558;2023-03-05T09:32:15;3.80;;;1.60;;
78840;SDS011;68379;47.190;27.558;2023-03-05T09:34:45;4.00;;;1.20;;
78840;SDS011;68379;47.190;27.558;2023-03-05T09:37:16;2.70;;;1.10;;
78840;SDS011;68379;47.190;27.558;2023-03-05T09:39:46;3.00;;;1.10;;
78840;SDS011;68379;47.190;27.558;2023-03-05T09:42:28;4.80;;;0.80;;
78840;SDS011;68379;47.190;27.558;2023-03-05T09:45:14;5.90;;;0.90;;
78840;SDS011;68379;47.190;27.558;2023-03-05T09:47:55;2.80;;;0.40;;
78840;SDS011;68379;47.190;27.558;2023-03-05T09:50:34;3.60;;;1.10;;
78840;SDS011;68379;47.190;27.558;2023-03-05T09:53:13;2.90;;;1.00;;
78840;SDS011;68379;47.190;27.558;2023-03-05T09:55:50;4.00;;;1.20;;
78840;SDS011;68379;47.190;27.558;2023-03-05T09:58:24;3.00;;;1.40;;
78840;SDS011;68379;47.190;27.558;2023-03-05T10:01:02;3.70;;;1.30;;
78840;SDS011;68379;47.190;27.558;2023-03-05T10:03:42;2.90;;;1.20;;
78840;SDS011;68379;47.190;27.558;2023-03-05T10:06:21;3.00;;;0.90;;
78840;SDS011;68379;47.190;27.558;2023-03-05T10:08:54;3.20;;;1.10;;
78840;SDS011;68379;47.190;27.558;2023-03-05T10:14:20;2.60;;;1.00;;
78840;SDS011;68379;47.190;27.558;2023-03-05T10:23:04;2.30;;;0.80;;
78840;SDS011;68379;47.190;27.558;2023-03-05T10:25:55;2.50;;;1.40;;
78840;SDS011;68379;47.190;27.558;2023-03-05T10:28:34;2.70;;;0.90;;
78840;SDS011;68379;47.190;27.558;2023-03-05T10:31:21;2.80;;;0.90;;
78840;SDS011;68379;47.190;27.558;2023-03-05T10:34:15;1.70;;;0.70;;
78840;SDS011;68379;47.190;27.558;2023-03-05T10:37:04;1.90;;;0.80;;
78840;SDS011;68379;47.190;27.558;2023-03-05T10:39:49;2.40;;;0.90;;
78840;SDS011;68379;47.190;27.558;2023-03-05T10:42:29;3.30;;;1.20;;
78840;SDS011;68379;47.190;27.558;2023-03-05T10:47:43;5.10;;;1.20;;
78840;SDS011;68379;47.190;27.558;2023-03-05T10:50:18;1.80;;;0.80;;
78840;SDS011;68379;47.190;27.558;2023-03-05T10:52:51;3.60;;;1.20;;
78840;SDS011;68379;47.190;27.558;2023-03-05T10:55:34;2.90;;;0.80;;
78840;SDS011;68379;47.190;27.558;2023-03-05T10:58:10;2.30;;;1.20;;
78840;SDS011;68379;47.190;27.558;2023-03-05T11:00:41;2.30;;;1.10;;
78840;SDS011;68379;47.190;27.558;2023-03-05T11:03:36;2.90;;;1.10;;
78840;SDS011;68379;47.190;27.558;2023-03-05T11:06:16;3.00;;;0.90;;
78840;SDS011;68379;47.190;27.558;2023-03-05T11:08:56;2.50;;;1.30;;
78840;SDS011;68379;47.190;27.558;2023-03-05T11:14:41;4.60;;;1.70;;
78840;SDS011;68379;47.190;27.558;2023-03-05T11:17:26;15.40;;;6.60;;
78840;SDS011;68379;47.190;27.558;2023-03-05T11:20:19;3.90;;;1.30;;
78840;SDS011;68379;47.190;27.558;2023-03-05T11:23:07;3.50;;;1.40;;
78840;SDS011;68379;47.190;27.558;2023-03-05T11:25:56;3.40;;;1.50;;
78840;SDS011;68379;47.190;27.558;2023-03-05T11:28:29;3.60;;;1.60;;
78840;SDS011;68379;47.190;27.558;2023-03-05T11:31:06;5.30;;;1.70;;
78840;SDS011;68379;47.190;27.558;2023-03-05T11:34:00;5.00;;;1.80;;
78840;SDS011;68379;47.190;27.558;2023-03-05T11:36:32;2.90;;;1.50;;
78840;SDS011;68379;47.190;27.558;2023-03-05T11:39:13;3.10;;;1.90;;
78840;SDS011;68379;47.190;27.558;2023-03-05T11:41:46;4.00;;;1.60;;
78840;SDS011;68379;47.190;27.558;2023-03-05T11:44:19;3.00;;;1.40;;
78840;SDS011;68379;47.190;27.558;2023-03-05T11:46:54;3.10;;;1.40;;
78840;SDS011;68379;47.190;27.558;2023-03-05T11:49:31;4.10;;;2.20;;
78840;SDS011;68379;47.190;27.558;2023-03-05T11:52:07;4.90;;;1.80;;
78840;SDS011;68379;47.190;27.558;2023-03-05T11:54:45;3.90;;;1.60;;
78840;SDS011;68379;47.190;27.558;2023-03-05T11:57:21;3.60;;;2.10;;
78840;SDS011;68379;47.190;27.558;2023-03-05T11:59:53;4.30;;;1.60;;
78840;SDS011;68379;47.190;27.558;2023-03-05T12:02:25;3.90;;;1.50;;
78840;SDS011;68379;47.190;27.558;2023-03-05T12:04:56;4.60;;;1.60;;
78840;SDS011;68379;47.190;27.558;2023-03-05T12:07:32;3.70;;;1.40;;
78840;SDS011;68379;47.190;27.558;2023-03-05T12:10:12;2.80;;;1.50;;
78840;SDS011;68379;47.190;27.558;2023-03-05T12:12:45;4.60;;;1.50;;
78840;SDS011;68379;47.190;27.558;2023-03-05T12:15:30;7.90;;;1.60;;
78840;SDS011;68379;47.190;27.558;2023-03-05T12:18:09;2.20;;;1.20;;
78840;SDS011;68379;47.190;27.558;2023-03-05T12:20:50;2.50;;;1.40;;
78840;SDS011;68379;47.190;27.558;2023-03-05T12:23:26;2.90;;;1.60;;
78840;SDS011;68379;47.190;27.558;2023-03-05T12:25:57;3.60;;;1.70;;
78840;SDS011;68379;47.190;27.558;2023-03-05T12:31:27;2.80;;;1.30;;
78840;SDS011;68379;47.190;27.558;2023-03-05T12:37:13;3.70;;;1.30;;
78840;SDS011;68379;47.190;27.558;2023-03-05T12:40:23;3.60;;;1.40;;
78840;SDS011;68379;47.190;27.558;2023-03-05T12:42:56;3.80;;;1.80;;
78840;SDS011;68379;47.190;27.558;2023-03-05T12:48:40;3.70;;;1.80;;
78840;SDS011;68379;47.190;27.558;2023-03-05T12:51:26;4.10;;;1.70;;
78840;SDS011;68379;47.190;27.558;2023-03-05T12:57:03;4.50;;;1.80;;
78840;SDS011;68379;47.190;27.558;2023-03-05T12:59:43;3.20;;;1.90;;
78840;SDS011;68379;47.190;27.558;2023-03-05T13:02:20;3.90;;;1.70;;
78840;SDS011;68379;47.190;27.558;2023-03-05T13:04:56;3.40;;;1.60;;
78840;SDS011;68379;47.190;27.558;2023-03-05T13:07:28;2.70;;;1.70;;
78840;SDS011;68379;47.190;27.558;2023-03-05T13:09:58;3.60;;;1.90;;
78840;SDS011;68379;47.190;27.558;2023-03-05T13:12:29;4.80;;;2.60;;
78840;SDS011;68379;47.190;27.558;2023-03-05T13:15:00;4.20;;;1.80;;
78840;SDS011;68379;47.190;27.558;2023-03-05T13:17:33;5.50;;;1.80;;
78840;SDS011;68379;47.190;27.558;2023-03-05T13:23:04;3.30;;;1.80;;
78840;SDS011;68379;47.190;27.558;2023-03-05T13:25:54;5.80;;;2.30;;
78840;SDS011;68379;47.190;27.558;2023-03-05T13:28:27;3.80;;;1.70;;
78840;SDS011;68379;47.190;27.558;2023-03-05T13:30:59;3.90;;;2.00;;
78840;SDS011;68379;47.190;27.558;2023-03-05T13:33:32;3.60;;;2.00;;
78840;SDS011;68379;47.190;27.558;2023-03-05T13:36:05;5.20;;;2.90;;
78840;SDS011;68379;47.190;27.558;2023-03-05T13:38:44;2.80;;;1.80;;
78840;SDS011;68379;47.190;27.558;2023-03-05T13:41:22;3.80;;;1.60;;
78840;SDS011;68379;47.190;27.558;2023-03-05T13:43:54;3.20;;;2.30;;
78840;SDS011;68379;47.190;27.558;2023-03-05T13:46:27;4.70;;;2.50;;
78840;SDS011;68379;47.190;27.558;2023-03-05T13:51:48;3.20;;;1.90;;
78840;SDS011;68379;47.190;27.558;2023-03-05T13:54:22;5.00;;;1.90;;
78840;SDS011;68379;47.190;27.558;2023-03-05T13:56:55;4.40;;;1.80;;
78840;SDS011;68379;47.190;27.558;2023-03-05T13:59:27;3.90;;;1.90;;
78840;SDS011;68379;47.190;27.558;2023-03-05T14:02:00;8.30;;;3.20;;
78840;SDS011;68379;47.190;27.558;2023-03-05T14:04:33;6.40;;;2.20;;
78840;SDS011;68379;47.190;27.558;2023-03-05T14:07:19;6.00;;;2.90;;
78840;SDS011;68379;47.190;27.558;2023-03-05T14:09:59;5.80;;;1.90;;
78840;SDS011;68379;47.190;27.558;2023-03-05T14:12:34;4.00;;;2.10;;
78840;SDS011;68379;47.190;27.558;2023-03-05T14:15:18;4.40;;;2.60;;
78840;SDS011;68379;47.190;27.558;2023-03-05T14:17:50;7.00;;;3.30;;
78840;SDS011;68379;47.190;27.558;2023-03-05T14:20:35;3.90;;;2.40;;
78840;SDS011;68379;47.190;27.558;2023-03-05T14:26:12;7.00;;;3.00;;
78840;SDS011;68379;47.190;27.558;2023-03-05T14:28:53;5.20;;;3.10;;
78840;SDS011;68379;47.190;27.558;2023-03-05T14:31:26;7.50;;;2.90;;
78840;SDS011;68379;47.190;27.558;2023-03-05T14:34:02;5.00;;;2.80;;
78840;SDS011;68379;47.190;27.558;2023-03-05T14:36:34;6.80;;;3.40;;
78840;SDS011;68379;47.190;27.558;2023-03-05T14:39:06;9.80;;;6.30;;
78840;SDS011;68379;47.190;27.558;2023-03-05T14:41:48;27.20;;;17.70;;
78840;SDS011;68379;47.190;27.558;2023-03-05T14:44:18;9.00;;;4.20;;
78840;SDS011;68379;47.190;27.558;2023-03-05T14:46:51;7.40;;;3.90;;
78840;SDS011;68379;47.190;27.558;2023-03-05T15:01:27;8.30;;;4.00;;
78840;SDS011;68379;47.190;27.558;2023-03-05T15:03:59;10.40;;;3.60;;
78840;SDS011;68379;47.190;27.558;2023-03-05T15:06:31;7.80;;;3.10;;
78840;SDS011;68379;47.190;27.558;2023-03-05T15:09:05;7.60;;;3.30;;
78840;SDS011;68379;47.190;27.558;2023-03-05T15:11:40;6.90;;;3.30;;
78840;SDS011;68379;47.190;27.558;2023-03-05T15:14:11;7.00;;;3.70;;
78840;SDS011;68379;47.190;27.558;2023-03-05T15:16:43;6.60;;;3.40;;
78840;SDS011;68379;47.190;27.558;2023-03-05T15:19:16;8.30;;;3.50;;
78840;SDS011;68379;47.190;27.558;2023-03-05T15:21:47;8.10;;;4.10;;
78840;SDS011;68379;47.190;27.558;2023-03-05T15:24:19;8.90;;;4.00;;
78840;SDS011;68379;47.190;27.558;2023-03-05T15:26:51;9.20;;;4.60;;
78840;SDS011;68379;47.190;27.558;2023-03-05T15:29:22;6.70;;;4.00;;
78840;SDS011;68379;47.190;27.558;2023-03-05T15:31:54;9.70;;;4.80;;
78840;SDS011;68379;47.190;27.558;2023-03-05T15:34:25;6.60;;;3.70;;
78840;SDS011;68379;47.190;27.558;2023-03-05T15:36:57;10.90;;;4.20;;
78840;SDS011;68379;47.190;27.558;2023-03-05T15:39:29;6.50;;;4.20;;
78840;SDS011;68379;47.190;27.558;2023-03-05T15:42:00;6.60;;;4.40;;
78840;SDS011;68379;47.190;27.558;2023-03-05T15:44:32;6.30;;;3.70;;
78840;SDS011;68379;47.190;27.558;2023-03-05T15:47:06;7.20;;;3.60;;
78840;SDS011;68379;47.190;27.558;2023-03-05T15:49:38;7.40;;;3.70;;